createdAt,value
2023-03-20T00:01:26.716Z,9.13
2023-03-20T00:03:53.807Z,8.98
2023-03-20T00:06:21.609Z,8.52
2023-03-20T00:08:49.945Z,9.57
2023-03-20T00:11:41.117Z,9.38
2023-03-20T00:14:14.529Z,8.85
2023-03-20T00:16:46.397Z,8.95
2023-03-20T00:19:19.985Z,8.85
2023-03-20T00:21:47.956Z,9.48
2023-03-20T00:24:16.029Z,10.02
2023-03-20T00:26:45.469Z,8.43
2023-03-20T00:29:22.093Z,8.73
2023-03-20T00:31:49.693Z,9.20
2023-03-20T00:34:19.510Z,9.27
2023-03-20T00:36:46.709Z,9.10
2023-03-20T00:39:13.695Z,8.30
2023-03-20T00:41:45.048Z,9.00
2023-03-20T00:44:30.497Z,8.90
2023-03-20T00:47:03.142Z,10.02
2023-03-20T00:49:35.231Z,9.50
2023-03-20T00:52:03.547Z,9.68
2023-03-20T00:54:31.227Z,10.43
2023-03-20T00:57:24.065Z,9.90
2023-03-20T01:00:02.285Z,9.65
2023-03-20T01:02:31.106Z,10.07
2023-03-20T01:04:59.899Z,10.57
2023-03-20T01:07:27.854Z,10.68
2023-03-20T01:09:55.612Z,10.55
2023-03-20T01:12:22.702Z,10.20
2023-03-20T01:14:56.518Z,10.20
2023-03-20T01:17:25.624Z,11.20
2023-03-20T01:19:52.707Z,9.82
2023-03-20T01:22:19.800Z,10.98
2023-03-20T01:24:47.398Z,11.77
2023-03-20T01:27:16.841Z,10.65
2023-03-20T01:29:43.841Z,11.32
2023-03-20T01:32:19.331Z,12.13
2023-03-20T01:34:49.605Z,11.00
2023-03-20T01:37:26.713Z,12.13
2023-03-20T01:39:57.326Z,12.90
2023-03-20T01:42:25.155Z,12.07
2023-03-20T01:44:52.896Z,11.93
2023-03-20T01:47:23.605Z,12.10
2023-03-20T01:50:18.625Z,11.27
2023-03-20T01:52:50.702Z,11.88
2023-03-20T01:55:18.292Z,11.27
2023-03-20T01:57:53.600Z,12.55
2023-03-20T02:00:21.451Z,11.68
2023-03-20T02:02:49.100Z,11.48
2023-03-20T02:05:35.920Z,11.70
2023-03-20T02:08:18.056Z,11.45
2023-03-20T02:10:47.221Z,11.45
2023-03-20T02:13:21.798Z,10.60
2023-03-20T02:16:03.844Z,11.93
2023-03-20T02:18:53.423Z,11.77
2023-03-20T02:21:33.084Z,11.60
2023-03-20T02:24:21.422Z,11.38
2023-03-20T02:27:16.208Z,10.45
2023-03-20T02:30:31.509Z,10.38
2023-03-20T02:33:09.508Z,10.48
2023-03-20T02:36:11.221Z,10.63
2023-03-20T02:38:46.036Z,11.13
2023-03-20T02:41:34.852Z,10.75
2023-03-20T02:44:13.911Z,9.93
2023-03-20T02:47:05.914Z,10.23
2023-03-20T02:50:01.101Z,9.52
2023-03-20T02:52:49.197Z,9.98
2023-03-20T02:55:19.458Z,9.35
2023-03-20T02:58:03.248Z,10.48
2023-03-20T03:00:41.348Z,9.88
2023-03-20T03:03:17.132Z,10.15
2023-03-20T03:05:58.067Z,10.18
2023-03-20T03:08:31.403Z,9.25
2023-03-20T03:11:05.017Z,9.80
2023-03-20T03:13:35.605Z,10.43
2023-03-20T03:16:17.169Z,9.45
2023-03-20T03:18:46.642Z,10.43
2023-03-20T03:21:16.410Z,9.02
2023-03-20T03:23:47.145Z,9.95
2023-03-20T03:26:21.218Z,9.43
2023-03-20T03:28:52.780Z,11.00
2023-03-20T03:31:21.959Z,9.23
2023-03-20T03:33:52.748Z,9.52
2023-03-20T03:36:32.915Z,10.27
2023-03-20T03:39:15.599Z,10.18
2023-03-20T03:41:45.467Z,9.80
2023-03-20T03:44:27.554Z,10.65
2023-03-20T03:47:04.217Z,10.70
2023-03-20T03:49:35.557Z,10.15
2023-03-20T03:52:08.163Z,9.80
2023-03-20T03:54:42.668Z,9.93
2023-03-20T03:57:35.017Z,10.63
2023-03-20T04:00:06.763Z,10.25
2023-03-20T04:02:42.492Z,10.60
2023-03-20T04:05:10.714Z,9.35
2023-03-20T04:07:37.643Z,9.10
2023-03-20T04:10:04.878Z,9.68
2023-03-20T04:12:38.963Z,9.07
2023-03-20T04:15:11.191Z,10.20
2023-03-20T04:17:38.319Z,10.52
2023-03-20T04:20:07.605Z,9.13
2023-03-20T04:22:35.047Z,9.95
2023-03-20T04:25:09.894Z,8.77
2023-03-20T04:27:36.860Z,9.35
2023-03-20T04:30:11.745Z,9.02
2023-03-20T04:32:57.671Z,9.20
2023-03-20T04:35:37.072Z,9.65
2023-03-20T04:38:11.316Z,8.73
2023-03-20T04:40:38.862Z,9.32
2023-03-20T04:43:05.739Z,9.55
2023-03-20T04:45:32.775Z,8.57
2023-03-20T04:48:00.093Z,8.75
2023-03-20T04:50:27.912Z,9.57
2023-03-20T04:52:55.888Z,9.05
2023-03-20T04:55:23.601Z,10.13
2023-03-20T04:57:50.947Z,9.23
2023-03-20T05:00:18.918Z,8.27
2023-03-20T05:02:46.344Z,8.50
2023-03-20T05:05:14.944Z,7.70
2023-03-20T05:07:42.156Z,9.10
2023-03-20T05:10:11.946Z,7.75
2023-03-20T05:12:47.988Z,8.35
2023-03-20T05:15:37.082Z,7.75
2023-03-20T05:18:33.528Z,7.00
2023-03-20T05:21:12.737Z,6.85
2023-03-20T05:23:54.064Z,7.47
2023-03-20T05:26:30.388Z,8.05
2023-03-20T05:29:19.280Z,8.13
2023-03-20T05:31:46.413Z,7.88
2023-03-20T05:34:18.683Z,9.15
2023-03-20T05:37:14.795Z,8.52
2023-03-20T05:40:00.368Z,7.88
2023-03-20T05:42:56.520Z,8.57
2023-03-20T05:45:35.692Z,9.02
2023-03-20T05:48:18.577Z,8.45
2023-03-20T05:51:07.174Z,8.48
2023-03-20T05:53:48.659Z,8.05
2023-03-20T05:56:29.803Z,7.88
2023-03-20T06:04:35.081Z,8.30
2023-03-20T06:07:26.978Z,8.88
2023-03-20T06:10:01.501Z,8.32
2023-03-20T06:12:29.881Z,8.35
2023-03-20T06:14:56.851Z,8.13
2023-03-20T06:17:24.781Z,8.57
2023-03-20T06:19:58.400Z,8.88
2023-03-20T06:22:25.358Z,8.82
2023-03-20T06:24:54.306Z,9.05
2023-03-20T06:27:22.265Z,8.82
2023-03-20T06:29:49.801Z,8.73
2023-03-20T06:32:22.512Z,9.18
2023-03-20T06:34:51.613Z,9.23
2023-03-20T06:37:19.991Z,8.57
2023-03-20T06:39:46.919Z,8.95
2023-03-20T06:42:16.265Z,9.40
2023-03-20T06:44:44.819Z,9.23
2023-03-20T06:47:20.003Z,8.68
2023-03-20T06:49:48.837Z,8.45
2023-03-20T06:52:17.699Z,7.75
2023-03-20T06:54:51.288Z,9.05
2023-03-20T06:57:18.509Z,7.88
2023-03-20T06:59:45.548Z,8.25
2023-03-20T07:02:12.588Z,8.25
2023-03-20T07:04:39.879Z,8.02
2023-03-20T07:07:08.187Z,7.88
2023-03-20T07:09:35.785Z,8.25
2023-03-20T07:12:03.177Z,7.43
2023-03-20T07:14:31.776Z,7.40
2023-03-20T07:17:03.503Z,7.95
2023-03-20T07:19:31.503Z,7.50
2023-03-20T07:22:02.361Z,8.18
2023-03-20T07:24:35.037Z,8.68
2023-03-20T07:27:02.021Z,6.38
2023-03-20T07:29:30.315Z,7.38
2023-03-20T07:32:01.052Z,6.75
2023-03-20T07:34:33.218Z,7.35
2023-03-20T07:37:01.322Z,7.35
2023-03-20T07:39:29.006Z,7.47
2023-03-20T07:42:19.145Z,7.30
2023-03-20T07:44:57.756Z,7.40
2023-03-20T07:47:24.726Z,8.00
2023-03-20T07:49:51.577Z,8.10
2023-03-20T07:52:19.148Z,7.22
2023-03-20T07:54:46.130Z,7.63
2023-03-20T07:57:14.484Z,7.38
2023-03-20T07:59:41.396Z,6.90
2023-03-20T08:02:14.065Z,6.68
2023-03-20T08:04:41.389Z,6.40
2023-03-20T08:07:08.339Z,6.78
2023-03-20T08:09:35.470Z,6.32
2023-03-20T08:12:02.283Z,5.65
2023-03-20T08:14:29.245Z,6.93
2023-03-20T08:17:12.297Z,5.63
2023-03-20T08:19:41.064Z,5.73
2023-03-20T08:22:07.950Z,5.93
2023-03-20T08:24:34.887Z,5.85
2023-03-20T08:27:01.731Z,5.78
2023-03-20T08:29:28.980Z,5.18
2023-03-20T08:31:56.178Z,5.65
2023-03-20T08:34:24.237Z,5.13
2023-03-20T08:36:52.492Z,5.75
2023-03-20T08:39:20.651Z,5.65
2023-03-20T08:41:47.474Z,5.13
2023-03-20T08:44:14.411Z,5.32
2023-03-20T08:46:43.702Z,4.85
2023-03-20T08:49:10.773Z,5.00
2023-03-20T08:51:37.633Z,5.47
2023-03-20T08:54:04.655Z,5.70
2023-03-20T08:56:31.560Z,6.35
2023-03-20T08:58:58.406Z,6.18
2023-03-20T09:01:32.593Z,5.13
2023-03-20T09:04:05.775Z,6.10
2023-03-20T09:06:35.659Z,6.50
2023-03-20T09:09:03.680Z,6.45
2023-03-20T09:11:31.162Z,5.97
2023-03-20T09:13:59.385Z,6.40
2023-03-20T09:16:27.099Z,6.85
2023-03-20T09:18:54.330Z,5.88
2023-03-20T09:21:21.317Z,5.97
2023-03-20T09:23:48.195Z,6.53
2023-03-20T09:26:15.301Z,5.80
2023-03-20T09:28:42.244Z,6.30
2023-03-20T09:31:09.109Z,6.85
2023-03-20T09:33:36.155Z,5.70
2023-03-20T09:36:03.097Z,6.13
2023-03-20T09:38:30.076Z,6.07
2023-03-20T09:41:00.232Z,6.05
2023-03-20T09:43:38.575Z,5.60
2023-03-20T09:46:17.708Z,6.38
2023-03-20T09:48:54.826Z,6.10
2023-03-20T09:51:36.267Z,7.40
2023-03-20T09:54:53.675Z,6.13
2023-03-20T09:57:28.858Z,5.90
2023-03-20T10:00:01.354Z,6.25
2023-03-20T10:02:46.525Z,6.25
2023-03-20T10:05:25.679Z,6.38
2023-03-20T10:07:55.787Z,6.15
2023-03-20T10:10:38.419Z,6.22
2023-03-20T10:13:27.650Z,6.60
2023-03-20T10:16:13.618Z,5.82
2023-03-20T10:21:18.653Z,6.72
2023-03-20T10:24:02.527Z,7.13
2023-03-20T10:26:34.193Z,7.88
2023-03-20T10:29:02.379Z,6.88
2023-03-20T10:31:52.068Z,7.68
2023-03-20T10:34:56.118Z,7.55
2023-03-20T10:37:46.481Z,7.22
2023-03-20T10:40:21.057Z,7.82
2023-03-20T10:42:49.343Z,9.37
2023-03-20T10:45:43.191Z,7.40
2023-03-20T10:48:22.675Z,7.53
2023-03-20T10:50:58.916Z,7.88
2023-03-20T10:53:30.855Z,7.18
2023-03-20T10:56:05.901Z,6.72
2023-03-20T10:58:39.437Z,7.22
2023-03-20T11:01:07.225Z,7.10
2023-03-20T11:03:36.299Z,7.15
2023-03-20T11:06:13.970Z,6.43
2023-03-20T11:08:42.891Z,7.47
2023-03-20T11:11:10.390Z,7.43
2023-03-20T11:13:43.678Z,6.72
2023-03-20T11:16:23.611Z,8.32
2023-03-20T11:18:52.394Z,7.53
2023-03-20T11:21:28.343Z,7.35
2023-03-20T11:23:55.913Z,8.35
2023-03-20T11:26:38.618Z,7.25
2023-03-20T11:29:08.024Z,7.28
2023-03-20T11:31:36.288Z,7.50
2023-03-20T11:34:15.602Z,8.02
2023-03-20T11:37:08.671Z,6.65
2023-03-20T11:39:38.117Z,7.18
2023-03-20T11:42:21.464Z,6.97
2023-03-20T11:44:58.245Z,7.88
2023-03-20T11:47:28.134Z,7.25
2023-03-20T11:49:57.805Z,5.88
2023-03-20T11:52:32.924Z,6.72
2023-03-20T11:55:03.267Z,6.15
2023-03-20T11:57:35.659Z,6.85
2023-03-20T12:00:25.928Z,6.40
2023-03-20T12:02:53.009Z,7.30
2023-03-20T12:05:30.616Z,6.63
2023-03-20T12:08:02.422Z,6.43
2023-03-20T12:10:42.884Z,5.72
2023-03-20T12:13:22.522Z,5.80
2023-03-20T12:15:59.809Z,5.63
2023-03-20T12:18:40.570Z,5.60
2023-03-20T12:21:45.782Z,4.80
2023-03-20T12:24:36.852Z,5.60
2023-03-20T12:27:25.546Z,4.82
2023-03-20T12:30:15.755Z,4.60
2023-03-20T12:33:07.170Z,5.10
2023-03-20T12:35:38.975Z,4.93
2023-03-20T12:38:26.895Z,4.70
2023-03-20T12:41:08.271Z,5.57
2023-03-20T12:43:47.043Z,5.10
2023-03-20T12:46:26.729Z,5.35
2023-03-20T12:49:29.836Z,4.85
2023-03-20T12:52:13.344Z,4.63
2023-03-20T12:55:02.657Z,4.45
2023-03-20T12:57:38.702Z,4.22
2023-03-20T13:00:33.067Z,4.35
2023-03-20T13:03:22.177Z,4.03
2023-03-20T13:06:03.115Z,4.05
2023-03-20T13:09:11.885Z,3.58
2023-03-20T13:11:54.024Z,3.05
2023-03-20T13:14:50.275Z,3.03
2023-03-20T13:17:26.610Z,2.60
2023-03-20T13:20:22.197Z,3.58
2023-03-20T13:23:11.268Z,3.10
2023-03-20T13:25:59.930Z,3.25
2023-03-20T13:29:05.250Z,2.90
2023-03-20T13:31:50.405Z,2.42
2023-03-20T13:34:31.640Z,3.33
2023-03-20T13:37:23.825Z,3.42
2023-03-20T13:39:54.408Z,2.88
2023-03-20T13:42:24.347Z,2.65
2023-03-20T13:44:57.752Z,3.00
2023-03-20T13:47:28.461Z,2.80
2023-03-20T13:50:23.916Z,2.92
2023-03-20T13:52:59.197Z,3.83
2023-03-20T13:55:41.439Z,2.60
2023-03-20T13:58:37.325Z,3.08
2023-03-20T14:01:13.318Z,2.85
2023-03-20T14:03:45.882Z,2.95
2023-03-20T14:06:30.981Z,3.90
2023-03-20T14:08:59.694Z,3.73
2023-03-20T14:11:37.250Z,3.35
2023-03-20T14:14:19.760Z,3.72
2023-03-20T14:16:46.651Z,3.45
2023-03-20T14:19:18.039Z,3.90
2023-03-20T14:21:50.004Z,3.40
2023-03-20T14:24:19.590Z,3.28
2023-03-20T14:26:54.509Z,3.92
2023-03-20T14:29:41.695Z,2.47
2023-03-20T14:32:14.667Z,3.03
2023-03-20T14:34:52.995Z,2.47
2023-03-20T14:37:45.867Z,2.30
2023-03-20T14:40:28.541Z,2.60
2023-03-20T14:43:01.741Z,2.30
2023-03-20T14:46:09.087Z,2.33
2023-03-20T14:48:47.883Z,2.22
2023-03-20T14:51:20.729Z,2.50
2023-03-20T14:53:56.893Z,2.65
2023-03-20T14:56:33.586Z,2.53
2023-03-20T14:59:04.687Z,3.08
2023-03-20T15:01:46.084Z,2.83
2023-03-20T15:04:34.524Z,2.90
2023-03-20T15:07:13.247Z,3.13
2023-03-20T15:09:43.704Z,3.50
2023-03-20T15:12:15.010Z,3.10
2023-03-20T15:14:56.566Z,3.17
2023-03-20T15:17:27.259Z,4.82
2023-03-20T15:20:12.789Z,3.85
2023-03-20T15:22:57.614Z,4.13
2023-03-20T15:25:37.994Z,4.30
2023-03-20T15:28:12.582Z,4.35
2023-03-20T15:30:40.803Z,4.17
2023-03-20T15:33:12.689Z,3.80
2023-03-20T15:35:39.711Z,3.80
2023-03-20T15:38:08.445Z,4.30
2023-03-20T15:40:50.587Z,3.85
2023-03-20T15:43:22.784Z,4.15
2023-03-20T15:45:50.812Z,3.63
2023-03-20T15:48:20.474Z,3.55
2023-03-20T15:50:52.956Z,3.08
2023-03-20T15:53:30.372Z,3.25
2023-03-20T15:56:18.663Z,3.28
2023-03-20T15:58:50.045Z,2.80
2023-03-20T16:01:22.577Z,2.65
2023-03-20T16:03:50.730Z,2.63
2023-03-20T16:06:24.252Z,2.60
2023-03-20T16:09:05.717Z,3.15
2023-03-20T16:11:38.745Z,2.70
2023-03-20T16:14:07.781Z,2.97
2023-03-20T16:16:37.473Z,3.08
2023-03-20T16:19:06.998Z,3.30
2023-03-20T16:21:37.437Z,2.80
2023-03-20T16:24:09.194Z,3.15
2023-03-20T16:26:44.312Z,3.28
2023-03-20T16:29:14.458Z,3.65
2023-03-20T16:32:04.572Z,4.55
2023-03-20T16:34:35.789Z,4.20
2023-03-20T16:37:28.070Z,4.82
2023-03-20T16:40:28.726Z,3.85
2023-03-20T16:42:57.268Z,4.85
2023-03-20T16:45:26.338Z,4.60
2023-03-20T16:48:13.271Z,4.38
2023-03-20T16:50:42.161Z,4.88
2023-03-20T16:53:15.345Z,4.78
2023-03-20T16:55:48.257Z,4.65
2023-03-20T16:58:26.862Z,5.55
2023-03-20T17:01:05.792Z,6.13
2023-03-20T17:03:49.912Z,5.07
2023-03-20T17:06:20.867Z,5.75
2023-03-20T17:09:41.038Z,5.10
2023-03-20T17:12:18.076Z,5.35
2023-03-20T17:14:45.698Z,5.25
2023-03-20T17:17:19.659Z,5.78
2023-03-20T17:19:49.911Z,5.70
2023-03-20T17:22:18.481Z,6.10
2023-03-20T17:24:45.788Z,6.72
2023-03-20T17:27:14.550Z,5.85
2023-03-20T17:29:41.796Z,5.95
2023-03-20T17:32:16.956Z,6.57
2023-03-20T17:34:44.067Z,7.95
2023-03-20T17:37:18.560Z,6.80
2023-03-20T17:39:45.528Z,6.53
2023-03-20T17:42:21.020Z,7.10
2023-03-20T17:44:48.327Z,6.35
2023-03-20T17:47:17.031Z,5.95
2023-03-20T17:49:44.591Z,6.30
2023-03-20T17:52:29.760Z,6.43
2023-03-20T17:54:56.793Z,6.55
2023-03-20T17:57:32.797Z,6.20
2023-03-20T18:00:01.088Z,6.30
2023-03-20T18:02:28.301Z,6.97
2023-03-20T18:04:55.381Z,5.70
2023-03-20T18:07:22.674Z,6.45
2023-03-20T18:09:49.750Z,6.18
2023-03-20T18:12:19.007Z,6.72
2023-03-20T18:14:46.898Z,6.70
2023-03-20T18:17:15.365Z,6.57
2023-03-20T18:19:43.421Z,6.55
2023-03-20T18:22:11.258Z,7.07
2023-03-20T18:24:43.375Z,6.43
2023-03-20T18:27:12.178Z,6.95
2023-03-20T18:29:39.145Z,7.40
2023-03-20T18:32:06.093Z,7.68
2023-03-20T18:34:33.322Z,6.85
2023-03-20T18:37:00.447Z,7.05
2023-03-20T18:39:27.563Z,6.85
2023-03-20T18:41:54.758Z,7.70
2023-03-20T18:44:21.896Z,7.50
2023-03-20T18:46:49.296Z,7.30
2023-03-20T18:49:18.151Z,7.43
2023-03-20T18:51:45.955Z,6.78
2023-03-20T18:54:12.874Z,7.13
2023-03-20T18:56:40.754Z,8.25
2023-03-20T18:59:10.559Z,8.90
2023-03-20T19:01:37.554Z,8.75
2023-03-20T19:04:04.593Z,8.32
2023-03-20T19:06:32.255Z,8.38
2023-03-20T19:08:59.433Z,8.25
2023-03-20T19:11:26.434Z,8.60
2023-03-20T19:13:54.309Z,8.95
2023-03-20T19:16:28.438Z,9.02
2023-03-20T19:18:58.860Z,9.55
2023-03-20T19:21:26.402Z,10.25
2023-03-20T19:24:04.888Z,10.23
2023-03-20T19:26:33.826Z,10.40
2023-03-20T19:29:02.874Z,9.68
2023-03-20T19:31:30.040Z,10.25
2023-03-20T19:33:57.061Z,9.77
2023-03-20T19:36:32.922Z,10.43
2023-03-20T19:39:01.707Z,10.15
2023-03-20T19:41:29.211Z,10.30
2023-03-20T19:43:57.404Z,9.40
2023-03-20T19:46:39.096Z,10.30
2023-03-20T19:49:18.933Z,9.63
2023-03-20T19:51:46.517Z,9.45
2023-03-20T19:54:13.345Z,8.82
2023-03-20T19:56:40.740Z,9.23
2023-03-20T19:59:08.362Z,9.20
2023-03-20T20:01:36.245Z,9.57
2023-03-20T20:04:04.153Z,9.35
2023-03-20T20:06:32.971Z,9.95
2023-03-20T20:09:01.492Z,8.98
2023-03-20T20:11:29.018Z,10.75
2023-03-20T20:16:45.688Z,9.48
2023-03-20T20:19:12.806Z,10.52
2023-03-20T20:22:17.095Z,11.05
2023-03-20T20:24:27.197Z,11.05
2023-03-20T20:27:14.664Z,11.65
2023-03-20T20:29:42.718Z,11.52
2023-03-20T20:32:09.660Z,11.70
2023-03-20T20:40:15.477Z,12.32
2023-03-20T20:42:43.309Z,12.02
2023-03-20T20:45:14.644Z,11.60
2023-03-20T20:47:43.958Z,11.38
2023-03-20T20:50:12.978Z,11.35
2023-03-20T20:52:41.733Z,12.23
2023-03-20T20:55:22.003Z,11.00
2023-03-20T20:57:53.724Z,11.25
2023-03-20T21:00:27.345Z,11.50
2023-03-20T21:02:58.689Z,11.63
2023-03-20T21:05:27.220Z,11.20
2023-03-20T21:07:54.424Z,10.73
2023-03-20T21:10:22.067Z,11.55
2023-03-20T21:12:58.998Z,11.20
2023-03-20T21:15:26.671Z,11.00
2023-03-20T21:18:01.068Z,10.77
2023-03-20T21:20:30.237Z,11.82
2023-03-20T21:22:57.273Z,11.10
2023-03-20T21:25:38.704Z,10.65
2023-03-20T21:28:07.422Z,11.93
2023-03-20T21:30:34.727Z,11.80
2023-03-20T21:33:03.162Z,11.13
2023-03-20T21:35:30.541Z,12.95
2023-03-20T21:38:47.681Z,12.45
2023-03-20T21:40:44.812Z,12.77
2023-03-20T21:43:12.545Z,12.70
2023-03-20T21:49:31.404Z,12.90
2023-03-20T21:57:27.915Z,12.90
2023-03-20T22:00:19.146Z,12.63
2023-03-20T22:02:27.687Z,13.32
2023-03-20T22:17:08.758Z,12.70
2023-03-20T22:36:25.562Z,12.73
2023-03-20T22:39:12.588Z,12.82
2023-03-20T22:42:06.960Z,12.95
2023-03-20T22:46:54.855Z,12.40
2023-03-20T22:49:21.910Z,12.63
2023-03-20T22:52:07.775Z,12.35
2023-03-20T22:54:36.380Z,12.23
2023-03-20T22:57:03.217Z,11.63
2023-03-20T22:59:30.502Z,12.38
2023-03-20T23:01:57.417Z,11.40
2023-03-20T23:04:24.511Z,12.60
2023-03-20T23:06:51.512Z,13.60
2023-03-20T23:09:18.528Z,11.52
2023-03-20T23:11:45.625Z,11.23
2023-03-20T23:14:21.052Z,11.93
2023-03-20T23:16:48.473Z,11.43
2023-03-20T23:19:15.441Z,10.82
2023-03-20T23:21:42.424Z,11.98
2023-03-20T23:24:09.895Z,11.30
2023-03-20T23:26:36.864Z,11.85
2023-03-20T23:29:03.796Z,11.73
2023-03-20T23:31:30.760Z,11.38
2023-03-20T23:33:58.226Z,11.40
2023-03-20T23:36:36.450Z,11.48
2023-03-20T23:39:06.216Z,10.95
2023-03-20T23:42:01.634Z,12.13
2023-03-20T23:44:20.205Z,11.45
2023-03-20T23:46:48.250Z,11.55
2023-03-20T23:49:16.664Z,11.10
2023-03-20T23:51:44.070Z,12.07
2023-03-20T23:54:11.750Z,11.25
2023-03-20T23:56:38.983Z,10.95
2023-03-20T23:59:18.712Z,10.93
